FAG291 SAME-SCEL
Flight info
| Callsign | FAG291 |
|---|---|
| Flight time | 0h 34m |
| Altitude | 26000 |
| Route | UMKAL2G UMKAL UMKAL7C |
| Aircraft | B737/M-SDE2E3FGHIRWXY/LB1 |
Departure
| Time | 2026-05-09 02:35 |
|---|---|
| Airport | Governor Francisco Gabrielli International Airport (SAME) |
Arrival
| Time | 2026-05-09 03:10 |
|---|---|
| Airport | Comodoro Arturo Merino Benítez International Airport (SCEL) |
| Time | Latitude | Longitude | Altitude | Speed | Heading |
|---|---|---|---|---|---|
| 2026-05-09 02:19 | -32.82764 | -68.79778 | 2302 ft | 0 kts | 265° |
| 2026-05-09 02:23 | -32.82764 | -68.79775 | 2300 ft | 3 kts | 264° |
| 2026-05-09 02:23 | -32.82760 | -68.79744 | 2300 ft | 4 kts | 271° |
| 2026-05-09 02:23 | -32.82767 | -68.79720 | 2300 ft | 4 kts | 312° |
| 2026-05-09 02:24 | -32.82788 | -68.79706 | 2300 ft | 4 kts | 1° |
| 2026-05-09 02:24 | -32.82813 | -68.79708 | 2300 ft | 2 kts | 1° |
| 2026-05-09 02:24 | -32.82814 | -68.79708 | 2300 ft | 0 kts | 1° |
| 2026-05-09 02:27 | -32.82810 | -68.79708 | 2299 ft | 1 kts | 1° |
| 2026-05-09 02:27 | -32.82806 | -68.79708 | 2299 ft | 1 kts | 1° |
| 2026-05-09 02:27 | -32.82793 | -68.79708 | 2301 ft | 1 kts | 1° |
| 2026-05-09 02:28 | -32.82781 | -68.79708 | 2299 ft | 3 kts | 1° |
| 2026-05-09 02:28 | -32.82760 | -68.79707 | 2299 ft | 3 kts | 1° |
| 2026-05-09 02:28 | -32.82746 | -68.79707 | 2299 ft | 3 kts | 1° |
| 2026-05-09 02:28 | -32.82726 | -68.79706 | 2299 ft | 3 kts | 1° |
| 2026-05-09 02:29 | -32.82706 | -68.79706 | 2299 ft | 3 kts | 1° |
| 2026-05-09 02:29 | -32.82688 | -68.79703 | 2301 ft | 3 kts | 26° |
| 2026-05-09 02:29 | -32.82677 | -68.79684 | 2300 ft | 3 kts | 58° |
| 2026-05-09 02:29 | -32.82674 | -68.79658 | 2299 ft | 4 kts | 85° |
| 2026-05-09 02:30 | -32.82674 | -68.79624 | 2294 ft | 4 kts | 92° |
| 2026-05-09 02:30 | -32.82673 | -68.79592 | 2297 ft | 4 kts | 84° |
| 2026-05-09 02:30 | -32.82667 | -68.79560 | 2295 ft | 4 kts | 77° |
| 2026-05-09 02:30 | -32.82658 | -68.79531 | 2297 ft | 4 kts | 63° |
| 2026-05-09 02:31 | -32.82642 | -68.79507 | 2296 ft | 4 kts | 30° |
| 2026-05-09 02:31 | -32.82595 | -68.79503 | 2297 ft | 8 kts | 0° |
| 2026-05-09 02:31 | -32.82544 | -68.79502 | 2295 ft | 7 kts | 0° |
| 2026-05-09 02:31 | -32.82494 | -68.79501 | 2295 ft | 7 kts | 1° |
| 2026-05-09 02:32 | -32.82446 | -68.79500 | 2295 ft | 7 kts | 1° |
| 2026-05-09 02:32 | -32.82398 | -68.79499 | 2295 ft | 7 kts | 1° |
| 2026-05-09 02:32 | -32.82351 | -68.79498 | 2295 ft | 7 kts | 1° |
| 2026-05-09 02:32 | -32.82306 | -68.79497 | 2295 ft | 7 kts | 1° |
| 2026-05-09 02:33 | -32.82261 | -68.79496 | 2294 ft | 6 kts | 1° |
| 2026-05-09 02:33 | -32.82217 | -68.79495 | 2295 ft | 6 kts | 1° |
| 2026-05-09 02:33 | -32.82174 | -68.79494 | 2294 ft | 6 kts | 1° |
| 2026-05-09 02:33 | -32.82109 | -68.79493 | 2294 ft | 12 kts | 1° |
| 2026-05-09 02:34 | -32.82018 | -68.79490 | 2295 ft | 14 kts | 1° |
| 2026-05-09 02:34 | -32.81929 | -68.79469 | 2295 ft | 13 kts | 34° |
| 2026-05-09 02:34 | -32.81898 | -68.79376 | 2294 ft | 13 kts | 104° |
| 2026-05-09 02:34 | -32.81988 | -68.79283 | 2294 ft | 30 kts | 158° |
| 2026-05-09 02:35 | -32.82386 | -68.79275 | 2296 ft | 93 kts | 180° |
| 2026-05-09 02:35 | -32.83256 | -68.79280 | 2348 ft | 154 kts | 180° |
| 2026-05-09 02:35 | -32.84366 | -68.79348 | 3261 ft | 155 kts | 182° |
| 2026-05-09 02:35 | -32.85407 | -68.79362 | 4351 ft | 156 kts | 180° |
| 2026-05-09 02:36 | -32.86627 | -68.79372 | 4693 ft | 192 kts | 179° |
| 2026-05-09 02:36 | -32.88065 | -68.79382 | 5091 ft | 220 kts | 180° |
| 2026-05-09 02:36 | -32.89729 | -68.79396 | 5336 ft | 254 kts | 180° |
| 2026-05-09 02:36 | -32.91562 | -68.79389 | 6154 ft | 268 kts | 170° |
| 2026-05-09 02:37 | -32.93194 | -68.78395 | 7546 ft | 266 kts | 136° |
| 2026-05-09 02:37 | -32.94075 | -68.76440 | 8783 ft | 279 kts | 104° |
| 2026-05-09 02:37 | -32.94023 | -68.74093 | 9898 ft | 291 kts | 89° |
| 2026-05-09 02:37 | -32.94030 | -68.71671 | 10836 ft | 292 kts | 99° |
| 2026-05-09 02:38 | -32.94273 | -68.69180 | 11344 ft | 318 kts | 102° |
| 2026-05-09 02:38 | -32.94584 | -68.66445 | 11703 ft | 340 kts | 101° |
| 2026-05-09 02:38 | -32.94900 | -68.63725 | 12980 ft | 332 kts | 101° |
| 2026-05-09 02:38 | -32.95219 | -68.61037 | 14372 ft | 323 kts | 101° |
| 2026-05-09 02:39 | -32.95527 | -68.58407 | 15535 ft | 320 kts | 102° |
| 2026-05-09 02:39 | -32.95832 | -68.55750 | 16338 ft | 328 kts | 102° |
| 2026-05-09 02:39 | -32.96142 | -68.53010 | 17048 ft | 338 kts | 102° |
| 2026-05-09 02:39 | -32.96452 | -68.50196 | 17892 ft | 345 kts | 100° |
| 2026-05-09 02:40 | -32.96259 | -68.47329 | 18646 ft | 363 kts | 75° |
| 2026-05-09 02:40 | -32.95076 | -68.44633 | 19313 ft | 375 kts | 51° |
| 2026-05-09 02:40 | -32.93118 | -68.42552 | 19981 ft | 382 kts | 29° |
| 2026-05-09 02:40 | -32.90657 | -68.41348 | 20591 ft | 384 kts | 7° |
| 2026-05-09 02:41 | -32.88014 | -68.41196 | 21229 ft | 378 kts | 343° |
| 2026-05-09 02:41 | -32.85588 | -68.42184 | 21879 ft | 362 kts | 317° |
| 2026-05-09 02:41 | -32.83798 | -68.44153 | 22557 ft | 342 kts | 293° |
| 2026-05-09 02:41 | -32.82743 | -68.46595 | 23401 ft | 325 kts | 278° |
| 2026-05-09 02:42 | -32.82255 | -68.49129 | 24093 ft | 311 kts | 262° |
| 2026-05-09 02:42 | -32.82309 | -68.51641 | 24893 ft | 302 kts | 255° |
| 2026-05-09 02:42 | -32.82472 | -68.54121 | 25610 ft | 300 kts | 253° |
| 2026-05-09 02:42 | -32.82620 | -68.56606 | 26062 ft | 298 kts | 253° |
| 2026-05-09 02:43 | -32.82740 | -68.59070 | 26294 ft | 303 kts | 253° |
| 2026-05-09 02:43 | -32.82849 | -68.61652 | 26303 ft | 321 kts | 255° |
| 2026-05-09 02:43 | -32.82945 | -68.64380 | 26312 ft | 339 kts | 256° |
| 2026-05-09 02:43 | -32.83032 | -68.67248 | 26309 ft | 355 kts | 256° |
| 2026-05-09 02:44 | -32.83103 | -68.70243 | 26303 ft | 368 kts | 257° |
| 2026-05-09 02:44 | -32.83168 | -68.73327 | 26310 ft | 380 kts | 257° |
| 2026-05-09 02:44 | -32.83241 | -68.76456 | 26299 ft | 385 kts | 257° |
| 2026-05-09 02:44 | -32.83308 | -68.79647 | 26289 ft | 386 kts | 257° |
| 2026-05-09 02:45 | -32.83394 | -68.82824 | 26278 ft | 383 kts | 257° |
| 2026-05-09 02:45 | -32.83507 | -68.85981 | 26285 ft | 381 kts | 256° |
| 2026-05-09 02:45 | -32.83627 | -68.89117 | 26248 ft | 378 kts | 255° |
| 2026-05-09 02:45 | -32.83747 | -68.92252 | 26287 ft | 379 kts | 255° |
| 2026-05-09 02:46 | -32.83864 | -68.95391 | 26899 ft | 376 kts | 255° |
| 2026-05-09 02:46 | -32.83967 | -68.98439 | 28078 ft | 361 kts | 254° |
| 2026-05-09 02:46 | -32.84059 | -69.01300 | 29435 ft | 339 kts | 252° |
| 2026-05-09 02:46 | -32.84148 | -69.04064 | 30136 ft | 332 kts | 251° |
| 2026-05-09 02:47 | -32.84256 | -69.06788 | 30335 ft | 332 kts | 251° |
| 2026-05-09 02:47 | -32.84378 | -69.09594 | 30345 ft | 345 kts | 251° |
| 2026-05-09 02:47 | -32.84491 | -69.12491 | 30339 ft | 356 kts | 252° |
| 2026-05-09 02:47 | -32.84597 | -69.15483 | 30367 ft | 367 kts | 252° |
| 2026-05-09 02:48 | -32.84703 | -69.18567 | 30353 ft | 375 kts | 253° |
| 2026-05-09 02:48 | -32.84996 | -69.24873 | 30344 ft | 388 kts | 251° |
| 2026-05-09 02:49 | -32.85298 | -69.31265 | 30274 ft | 386 kts | 252° |
| 2026-05-09 02:49 | -32.85586 | -69.37614 | 30260 ft | 382 kts | 251° |
| 2026-05-09 02:50 | -32.85881 | -69.43904 | 30242 ft | 386 kts | 251° |
| 2026-05-09 02:50 | -32.86184 | -69.50337 | 30242 ft | 392 kts | 251° |
| 2026-05-09 02:50 | -32.86324 | -69.53530 | 30118 ft | 392 kts | 252° |
| 2026-05-09 02:51 | -32.86463 | -69.56765 | 30159 ft | 391 kts | 252° |
| 2026-05-09 02:51 | -32.86744 | -69.63237 | 30193 ft | 391 kts | 252° |
| 2026-05-09 02:52 | -32.87018 | -69.69700 | 30120 ft | 390 kts | 253° |
| 2026-05-09 02:52 | -32.87290 | -69.76092 | 30169 ft | 385 kts | 252° |
| 2026-05-09 02:53 | -32.87566 | -69.82437 | 30108 ft | 385 kts | 252° |
| 2026-05-09 02:53 | -32.87841 | -69.88824 | 29314 ft | 391 kts | 252° |
| 2026-05-09 02:53 | -32.87975 | -69.92039 | 28731 ft | 390 kts | 252° |
| 2026-05-09 02:54 | -32.88103 | -69.95238 | 28140 ft | 383 kts | 253° |
| 2026-05-09 02:54 | -32.88234 | -69.98386 | 27372 ft | 379 kts | 253° |
| 2026-05-09 02:54 | -32.88253 | -70.01533 | 26549 ft | 387 kts | 259° |
| 2026-05-09 02:54 | -32.87991 | -70.04739 | 26060 ft | 387 kts | 261° |
| 2026-05-09 02:55 | -32.87667 | -70.07891 | 25558 ft | 380 kts | 262° |
| 2026-05-09 02:55 | -32.87337 | -70.10977 | 25031 ft | 374 kts | 262° |
| 2026-05-09 02:55 | -32.87034 | -70.14032 | 24487 ft | 370 kts | 262° |
| 2026-05-09 02:55 | -32.86750 | -70.17061 | 23888 ft | 367 kts | 261° |
| 2026-05-09 02:56 | -32.86476 | -70.20036 | 23299 ft | 364 kts | 262° |
| 2026-05-09 02:56 | -32.86198 | -70.23006 | 22326 ft | 363 kts | 263° |
| 2026-05-09 02:56 | -32.85935 | -70.26020 | 21381 ft | 367 kts | 264° |
| 2026-05-09 02:56 | -32.85662 | -70.29043 | 20702 ft | 367 kts | 264° |
| 2026-05-09 02:57 | -32.85378 | -70.32042 | 20198 ft | 363 kts | 265° |
| 2026-05-09 02:57 | -32.85097 | -70.35017 | 19645 ft | 361 kts | 265° |
| 2026-05-09 02:57 | -32.84823 | -70.37970 | 19068 ft | 357 kts | 266° |
| 2026-05-09 02:57 | -32.84553 | -70.40891 | 18477 ft | 355 kts | 266° |
| 2026-05-09 02:58 | -32.84280 | -70.43802 | 17772 ft | 353 kts | 267° |
| 2026-05-09 02:58 | -32.84010 | -70.46704 | 17049 ft | 351 kts | 268° |
| 2026-05-09 02:58 | -32.83740 | -70.49592 | 16308 ft | 352 kts | 270° |
| 2026-05-09 02:58 | -32.83468 | -70.52480 | 15638 ft | 351 kts | 271° |
| 2026-05-09 02:59 | -32.83198 | -70.55324 | 14967 ft | 350 kts | 270° |
| 2026-05-09 02:59 | -32.82928 | -70.58177 | 14378 ft | 346 kts | 270° |
| 2026-05-09 02:59 | -32.82658 | -70.61009 | 13798 ft | 343 kts | 271° |
| 2026-05-09 02:59 | -32.82391 | -70.63800 | 13406 ft | 333 kts | 272° |
| 2026-05-09 03:00 | -32.82137 | -70.66476 | 13280 ft | 316 kts | 270° |
| 2026-05-09 03:00 | -32.82344 | -70.68961 | 13147 ft | 293 kts | 249° |
| 2026-05-09 03:00 | -32.83149 | -70.71107 | 13007 ft | 277 kts | 236° |
| 2026-05-09 03:00 | -32.84358 | -70.72850 | 12594 ft | 273 kts | 224° |
| 2026-05-09 03:01 | -32.85759 | -70.74402 | 12036 ft | 277 kts | 222° |
| 2026-05-09 03:01 | -32.87203 | -70.75949 | 11480 ft | 281 kts | 223° |
| 2026-05-09 03:01 | -32.88653 | -70.77522 | 11045 ft | 282 kts | 223° |
| 2026-05-09 03:01 | -32.90078 | -70.79081 | 10865 ft | 274 kts | 224° |
| 2026-05-09 03:02 | -32.91490 | -70.80544 | 10510 ft | 273 kts | 214° |
| 2026-05-09 03:02 | -32.93278 | -70.81368 | 10030 ft | 280 kts | 192° |
| 2026-05-09 03:02 | -32.95223 | -70.81676 | 9573 ft | 283 kts | 188° |
| 2026-05-09 03:02 | -32.97171 | -70.81939 | 9220 ft | 281 kts | 188° |
| 2026-05-09 03:03 | -32.99115 | -70.82211 | 8837 ft | 280 kts | 188° |
| 2026-05-09 03:03 | -33.01052 | -70.82440 | 8468 ft | 280 kts | 181° |
| 2026-05-09 03:03 | -33.02979 | -70.82330 | 8090 ft | 275 kts | 176° |
| 2026-05-09 03:03 | -33.04891 | -70.82147 | 7670 ft | 273 kts | 176° |
| 2026-05-09 03:04 | -33.06768 | -70.82006 | 7428 ft | 272 kts | 177° |
| 2026-05-09 03:04 | -33.08671 | -70.81894 | 7113 ft | 275 kts | 178° |
| 2026-05-09 03:04 | -33.10587 | -70.81792 | 6763 ft | 275 kts | 178° |
| 2026-05-09 03:04 | -33.12479 | -70.81694 | 6412 ft | 270 kts | 178° |
| 2026-05-09 03:05 | -33.14354 | -70.81593 | 6058 ft | 268 kts | 178° |
| 2026-05-09 03:05 | -33.16188 | -70.81493 | 5705 ft | 265 kts | 178° |
| 2026-05-09 03:05 | -33.18027 | -70.81396 | 5348 ft | 263 kts | 178° |
| 2026-05-09 03:05 | -33.19850 | -70.81300 | 5011 ft | 261 kts | 177° |
| 2026-05-09 03:06 | -33.21660 | -70.81205 | 4671 ft | 256 kts | 177° |
| 2026-05-09 03:06 | -33.23395 | -70.81111 | 4330 ft | 242 kts | 177° |
| 2026-05-09 03:06 | -33.25003 | -70.81026 | 4007 ft | 220 kts | 177° |
| 2026-05-09 03:06 | -33.26464 | -70.80947 | 3728 ft | 201 kts | 176° |
| 2026-05-09 03:07 | -33.27788 | -70.80876 | 3462 ft | 180 kts | 177° |
| 2026-05-09 03:07 | -33.28947 | -70.80814 | 3250 ft | 156 kts | 176° |
| 2026-05-09 03:07 | -33.29979 | -70.80759 | 3062 ft | 144 kts | 177° |
| 2026-05-09 03:07 | -33.30961 | -70.80708 | 2824 ft | 144 kts | 177° |
| 2026-05-09 03:08 | -33.31956 | -70.80653 | 2625 ft | 140 kts | 177° |
| 2026-05-09 03:08 | -33.32939 | -70.80596 | 2425 ft | 141 kts | 177° |
| 2026-05-09 03:08 | -33.33907 | -70.80551 | 2233 ft | 138 kts | 176° |
| 2026-05-09 03:08 | -33.34880 | -70.80497 | 2077 ft | 141 kts | 176° |
| 2026-05-09 03:09 | -33.35867 | -70.80447 | 1847 ft | 141 kts | 177° |
| 2026-05-09 03:09 | -33.36834 | -70.80394 | 1659 ft | 136 kts | 176° |
| 2026-05-09 03:09 | -33.37760 | -70.80345 | 1573 ft | 125 kts | 177° |
| 2026-05-09 03:09 | -33.38504 | -70.80300 | 1573 ft | 86 kts | 176° |
| 2026-05-09 03:10 | -33.38960 | -70.80276 | 1573 ft | 41 kts | 179° |
| 2026-05-09 03:10 | -33.39175 | -70.80265 | 1572 ft | 29 kts | 171° |
| 2026-05-09 03:10 | -33.39356 | -70.80179 | 1569 ft | 27 kts | 148° |
| 2026-05-09 03:10 | -33.39506 | -70.80056 | 1565 ft | 25 kts | 130° |
| 2026-05-09 03:11 | -33.39527 | -70.79861 | 1564 ft | 24 kts | 90° |
| 2026-05-09 03:11 | -33.39521 | -70.79670 | 1563 ft | 23 kts | 86° |
| 2026-05-09 03:11 | -33.39449 | -70.79584 | 1563 ft | 17 kts | 356° |
| 2026-05-09 03:11 | -33.39337 | -70.79566 | 1563 ft | 17 kts | 55° |
| 2026-05-09 03:12 | -33.39325 | -70.79445 | 1563 ft | 13 kts | 86° |
| 2026-05-09 03:12 | -33.39319 | -70.79275 | 1563 ft | 22 kts | 87° |
| 2026-05-09 03:12 | -33.39313 | -70.79079 | 1563 ft | 24 kts | 86° |
| 2026-05-09 03:12 | -33.39306 | -70.78888 | 1563 ft | 23 kts | 88° |
| 2026-05-09 03:13 | -33.39171 | -70.78801 | 1563 ft | 14 kts | 358° |
| 2026-05-09 03:13 | -33.39077 | -70.78809 | 1563 ft | 13 kts | 356° |
| 2026-05-09 03:13 | -33.38988 | -70.78814 | 1563 ft | 13 kts | 358° |
| 2026-05-09 03:14 | -33.38901 | -70.78816 | 1563 ft | 12 kts | 359° |
| 2026-05-09 03:14 | -33.38816 | -70.78822 | 1563 ft | 12 kts | 357° |
| 2026-05-09 03:14 | -33.38730 | -70.78827 | 1563 ft | 13 kts | 357° |
| 2026-05-09 03:14 | -33.38631 | -70.78831 | 1563 ft | 14 kts | 359° |
| 2026-05-09 03:15 | -33.38526 | -70.78837 | 1563 ft | 16 kts | 358° |
| 2026-05-09 03:15 | -33.38453 | -70.78840 | 1563 ft | 16 kts | 358° |
| 2026-05-09 03:15 | -33.38355 | -70.78878 | 1563 ft | 15 kts | 326° |
| 2026-05-09 03:15 | -33.38269 | -70.78944 | 1563 ft | 14 kts | 328° |
| 2026-05-09 03:16 | -33.38187 | -70.79006 | 1563 ft | 14 kts | 328° |
| 2026-05-09 03:16 | -33.38105 | -70.79059 | 1563 ft | 13 kts | 337° |
| 2026-05-09 03:16 | -33.38033 | -70.79122 | 1563 ft | 13 kts | 322° |
| 2026-05-09 03:16 | -33.37960 | -70.79179 | 1563 ft | 12 kts | 328° |
| 2026-05-09 03:17 | -33.37891 | -70.79239 | 1563 ft | 12 kts | 314° |
| 2026-05-09 03:17 | -33.37884 | -70.79330 | 1563 ft | 12 kts | 242° |
| 2026-05-09 03:17 | -33.37888 | -70.79423 | 1563 ft | 12 kts | 267° |
| 2026-05-09 03:17 | -33.37913 | -70.79428 | 1563 ft | 4 kts | 140° |
| 2026-05-09 03:18 | -33.37915 | -70.79427 | 1563 ft | 4 kts | 146° |
| 2026-05-09 03:18 | -33.37903 | -70.79436 | 1563 ft | 0 kts | 148° |
| 2026-05-09 03:18 | -33.37902 | -70.79437 | 1563 ft | 0 kts | 148° |